Terminal Aerodrome Forecast
Issued by NWS

Home | Current Version | Previous Version | Text Only | Print | Product List | Glossary On
Versions: 1 2 3 4 5 6 7 8 9 10 11 12 13 14 15 16 17 18 19 20 21 22 23 24
000
FTUS46 KPDT 111754 AAA
TAFRDM
TAF AMD
KRDM 111754Z 1118/1218 00000KT 4SM BR BKN003
     FM111900 32004KT 6SM BR SCT005
     FM112000 35005KT P6SM SKC
     FM120400 15003KT 2SM BR OVC002=

USA.gov is the U.S. government's official web portal to all federal, state and local government web resources and services.